sensor_id;sensor_type;location;lat;lon;timestamp;pressure;altitude;pressure_sealevel;temperature;humidity
73341;BME280;61578;52.002;5.468;2023-02-11T00:00:24;103365.88;;;7.83;80.99
73341;BME280;61578;52.002;5.468;2023-02-11T00:00:54;103364.13;;;7.82;80.94
73341;BME280;61578;52.002;5.468;2023-02-11T00:01:28;103365.88;;;7.83;81.04
73341;BME280;61578;52.002;5.468;2023-02-11T00:02:02;103377.38;;;7.81;80.89
73341;BME280;61578;52.002;5.468;2023-02-11T00:02:34;103323.88;;;7.56;81.13
73341;BME280;61578;52.002;5.468;2023-02-11T00:03:05;103362.38;;;7.80;80.88
73341;BME280;61578;52.002;5.468;2023-02-11T00:03:36;103360.63;;;7.79;81.02
73341;BME280;61578;52.002;5.468;2023-02-11T00:04:08;103347.50;;;7.72;80.82
73341;BME280;61578;52.002;5.468;2023-02-11T00:04:38;103347.44;;;7.74;80.81
73341;BME280;61578;52.002;5.468;2023-02-11T00:05:09;103360.59;;;7.82;80.80
73341;BME280;61578;52.002;5.468;2023-02-11T00:05:40;103322.97;;;7.60;80.80
73341;BME280;61578;52.002;5.468;2023-02-11T00:06:10;103381.75;;;7.82;80.60
73341;BME280;61578;52.002;5.468;2023-02-11T00:06:41;103365.91;;;7.80;80.84
73341;BME280;61578;52.002;5.468;2023-02-11T00:07:12;103366.75;;;7.84;80.58
73341;BME280;61578;52.002;5.468;2023-02-11T00:07:43;103364.13;;;7.84;80.66
73341;BME280;61578;52.002;5.468;2023-02-11T00:08:13;103359.72;;;7.83;81.16
73341;BME280;61578;52.002;5.468;2023-02-11T00:08:46;103374.69;;;7.82;81.18
73341;BME280;61578;52.002;5.468;2023-02-11T00:09:16;103372.94;;;7.83;81.10
73341;BME280;61578;52.002;5.468;2023-02-11T00:09:47;103375.59;;;7.81;80.92
73341;BME280;61578;52.002;5.468;2023-02-11T00:10:18;103373.00;;;7.76;81.05
73341;BME280;61578;52.002;5.468;2023-02-11T00:10:57;103374.69;;;7.82;80.87
73341;BME280;61578;52.002;5.468;2023-02-11T00:11:28;103378.25;;;7.80;80.79
73341;BME280;61578;52.002;5.468;2023-02-11T00:11:59;103378.19;;;7.84;80.88
73341;BME280;61578;52.002;5.468;2023-02-11T00:12:30;103367.66;;;7.81;80.92
73341;BME280;61578;52.002;5.468;2023-02-11T00:13:01;103379.03;;;7.86;80.87
73341;BME280;61578;52.002;5.468;2023-02-11T00:13:31;103368.56;;;7.80;80.76
73341;BME280;61578;52.002;5.468;2023-02-11T00:14:05;103371.19;;;7.82;80.59
73341;BME280;61578;52.002;5.468;2023-02-11T00:14:37;103379.03;;;7.86;80.51
73341;BME280;61578;52.002;5.468;2023-02-11T00:15:09;103371.13;;;7.85;80.70
73341;BME280;61578;52.002;5.468;2023-02-11T00:15:40;103327.38;;;7.59;80.75
73341;BME280;61578;52.002;5.468;2023-02-11T00:16:14;103375.53;;;7.86;80.43
73341;BME280;61578;52.002;5.468;2023-02-11T00:16:46;103373.75;;;7.85;80.52
73341;BME280;61578;52.002;5.468;2023-02-11T00:17:17;103364.16;;;7.79;80.76
73341;BME280;61578;52.002;5.468;2023-02-11T00:17:48;103363.25;;;7.80;80.57
73341;BME280;61578;52.002;5.468;2023-02-11T00:18:19;103377.28;;;7.85;80.82
73341;BME280;61578;52.002;5.468;2023-02-11T00:18:52;103372.97;;;7.80;80.79
73341;BME280;61578;52.002;5.468;2023-02-11T00:19:23;103370.28;;;7.83;80.69
73341;BME280;61578;52.002;5.468;2023-02-11T00:19:54;103367.66;;;7.83;80.60
73341;BME280;61578;52.002;5.468;2023-02-11T00:20:25;103367.66;;;7.83;80.69
73341;BME280;61578;52.002;5.468;2023-02-11T00:20:56;103362.38;;;7.81;80.81
73341;BME280;61578;52.002;5.468;2023-02-11T00:21:27;103327.38;;;7.61;80.93
73341;BME280;61578;52.002;5.468;2023-02-11T00:21:58;103360.59;;;7.83;80.49
73341;BME280;61578;52.002;5.468;2023-02-11T00:22:30;103366.78;;;7.81;80.77
73341;BME280;61578;52.002;5.468;2023-02-11T00:23:00;103358.84;;;7.82;80.91
73341;BME280;61578;52.002;5.468;2023-02-11T00:23:31;103366.78;;;7.81;80.72
73341;BME280;61578;52.002;5.468;2023-02-11T00:24:02;103360.63;;;7.79;80.83
73341;BME280;61578;52.002;5.468;2023-02-11T00:24:35;103362.38;;;7.80;80.69
73341;BME280;61578;52.002;5.468;2023-02-11T00:25:06;103358.88;;;7.76;80.96
73341;BME280;61578;52.002;5.468;2023-02-11T00:25:40;103368.56;;;7.80;81.05
73341;BME280;61578;52.002;5.468;2023-02-11T00:26:23;103362.38;;;7.80;81.00
73341;BME280;61578;52.002;5.468;2023-02-11T00:26:56;103372.97;;;7.78;81.03
73341;BME280;61578;52.002;5.468;2023-02-11T00:27:27;103366.81;;;7.78;80.71
73341;BME280;61578;52.002;5.468;2023-02-11T00:27:57;103368.56;;;7.77;81.01
73341;BME280;61578;52.002;5.468;2023-02-11T00:28:28;103366.78;;;7.81;80.95
73341;BME280;61578;52.002;5.468;2023-02-11T00:29:00;103361.53;;;7.76;81.28
73341;BME280;61578;52.002;5.468;2023-02-11T00:29:31;103360.63;;;7.79;81.07
73341;BME280;61578;52.002;5.468;2023-02-11T00:30:03;103360.59;;;7.82;80.81
73341;BME280;61578;52.002;5.468;2023-02-11T00:30:35;103379.09;;;7.83;80.86
73341;BME280;61578;52.002;5.468;2023-02-11T00:31:05;103388.81;;;7.83;80.75
73341;BME280;61578;52.002;5.468;2023-02-11T00:31:36;103368.53;;;7.83;80.85
73341;BME280;61578;52.002;5.468;2023-02-11T00:32:08;103331.75;;;7.62;80.91
73341;BME280;61578;52.002;5.468;2023-02-11T00:32:39;103330.03;;;7.59;80.59
73341;BME280;61578;52.002;5.468;2023-02-11T00:33:11;103351.84;;;7.73;80.79
73341;BME280;61578;52.002;5.468;2023-02-11T00:33:43;103366.78;;;7.82;80.61
73341;BME280;61578;52.002;5.468;2023-02-11T00:34:14;103365.91;;;7.80;80.69
73341;BME280;61578;52.002;5.468;2023-02-11T00:34:45;103365.88;;;7.83;81.01
73341;BME280;61578;52.002;5.468;2023-02-11T00:35:16;103318.59;;;7.56;80.63
73341;BME280;61578;52.002;5.468;2023-02-11T00:35:47;103365.81;;;7.85;81.07
73341;BME280;61578;52.002;5.468;2023-02-11T00:36:22;103355.31;;;7.80;80.56
73341;BME280;61578;52.002;5.468;2023-02-11T00:36:54;103360.59;;;7.82;80.72
73341;BME280;61578;52.002;5.468;2023-02-11T00:37:25;103350.06;;;7.75;80.63
73341;BME280;61578;52.002;5.468;2023-02-11T00:37:56;103363.25;;;7.82;80.82
73341;BME280;61578;52.002;5.468;2023-02-11T00:38:27;103357.09;;;7.80;81.11
73341;BME280;61578;52.002;5.468;2023-02-11T00:38:58;103356.19;;;7.81;80.83
73341;BME280;61578;52.002;5.468;2023-02-11T00:39:29;103364.13;;;7.81;80.99
73341;BME280;61578;52.002;5.468;2023-02-11T00:40:05;103361.53;;;7.78;80.65
73341;BME280;61578;52.002;5.468;2023-02-11T00:40:36;103362.44;;;7.73;80.75
73341;BME280;61578;52.002;5.468;2023-02-11T00:41:06;103365.03;;;7.78;81.06
73341;BME280;61578;52.002;5.468;2023-02-11T00:41:37;103370.34;;;7.75;80.79
73341;BME280;61578;52.002;5.468;2023-02-11T00:42:08;103356.22;;;7.78;81.10
73341;BME280;61578;52.002;5.468;2023-02-11T00:42:43;103369.44;;;7.78;81.03
73341;BME280;61578;52.002;5.468;2023-02-11T00:43:14;103362.41;;;7.78;80.75
73341;BME280;61578;52.002;5.468;2023-02-11T00:43:45;103323.00;;;7.55;81.00
73341;BME280;61578;52.002;5.468;2023-02-11T00:44:16;103362.38;;;7.80;80.52
73341;BME280;61578;52.002;5.468;2023-02-11T00:44:47;103369.44;;;7.81;80.83
73341;BME280;61578;52.002;5.468;2023-02-11T00:45:17;103332.66;;;7.61;80.62
73341;BME280;61578;52.002;5.468;2023-02-11T00:45:51;103321.25;;;7.54;80.77
73341;BME280;61578;52.002;5.468;2023-02-11T00:46:22;103359.75;;;7.78;81.13
73341;BME280;61578;52.002;5.468;2023-02-11T00:46:53;103380.00;;;7.81;80.86
73341;BME280;61578;52.002;5.468;2023-02-11T00:47:24;103369.44;;;7.81;80.64
73341;BME280;61578;52.002;5.468;2023-02-11T00:47:54;103357.09;;;7.78;80.72
73341;BME280;61578;52.002;5.468;2023-02-11T00:48:25;103318.59;;;7.54;80.66
73341;BME280;61578;52.002;5.468;2023-02-11T00:48:57;103364.13;;;7.81;81.01
73341;BME280;61578;52.002;5.468;2023-02-11T00:49:27;103373.00;;;7.76;80.95
73341;BME280;61578;52.002;5.468;2023-02-11T00:49:58;103372.13;;;7.74;81.13
73341;BME280;61578;52.002;5.468;2023-02-11T00:50:30;103363.38;;;7.71;80.83
73341;BME280;61578;52.002;5.468;2023-02-11T00:51:01;103375.63;;;7.76;81.16
73341;BME280;61578;52.002;5.468;2023-02-11T00:51:36;103361.59;;;7.73;81.10
73341;BME280;61578;52.002;5.468;2023-02-11T00:52:07;103361.53;;;7.76;80.97
73341;BME280;61578;52.002;5.468;2023-02-11T00:52:37;103370.34;;;7.76;80.95
73341;BME280;61578;52.002;5.468;2023-02-11T00:53:08;103365.06;;;7.75;81.00
73341;BME280;61578;52.002;5.468;2023-02-11T00:53:39;103357.16;;;7.73;81.14
73341;BME280;61578;52.002;5.468;2023-02-11T00:54:10;103360.72;;;7.72;81.24
73341;BME280;61578;52.002;5.468;2023-02-11T00:54:40;103369.44;;;7.78;80.92
73341;BME280;61578;52.002;5.468;2023-02-11T00:55:11;103380.91;;;7.76;81.05
73341;BME280;61578;52.002;5.468;2023-02-11T00:55:42;103351.94;;;7.67;81.17
73341;BME280;61578;52.002;5.468;2023-02-11T00:56:13;103373.84;;;7.79;81.24
73341;BME280;61578;52.002;5.468;2023-02-11T00:56:43;103376.50;;;7.79;80.76
73341;BME280;61578;52.002;5.468;2023-02-11T00:57:14;103365.94;;;7.75;81.07
73341;BME280;61578;52.002;5.468;2023-02-11T00:57:45;103360.75;;;7.69;80.99
73341;BME280;61578;52.002;5.468;2023-02-11T00:58:16;103376.53;;;7.75;80.99
73341;BME280;61578;52.002;5.468;2023-02-11T00:58:47;103372.13;;;7.74;80.96
73341;BME280;61578;52.002;5.468;2023-02-11T00:59:18;103380.06;;;7.74;81.30
73341;BME280;61578;52.002;5.468;2023-02-11T00:59:49;103366.88;;;7.73;81.00
73341;BME280;61578;52.002;5.468;2023-02-11T01:00:20;103373.91;;;7.74;81.31
73341;BME280;61578;52.002;5.468;2023-02-11T01:00:52;103327.50;;;7.49;81.19
73341;BME280;61578;52.002;5.468;2023-02-11T01:01:24;103373.00;;;7.76;80.76
73341;BME280;61578;52.002;5.468;2023-02-11T01:01:54;103365.94;;;7.75;81.36
73341;BME280;61578;52.002;5.468;2023-02-11T01:02:25;103368.59;;;7.74;80.91
73341;BME280;61578;52.002;5.468;2023-02-11T01:02:56;103371.22;;;7.79;81.06
73341;BME280;61578;52.002;5.468;2023-02-11T01:03:27;103364.16;;;7.78;80.94
73341;BME280;61578;52.002;5.468;2023-02-11T01:03:58;103371.22;;;7.79;81.07
73341;BME280;61578;52.002;5.468;2023-02-11T01:04:29;103371.22;;;7.79;80.82
73341;BME280;61578;52.002;5.468;2023-02-11T01:05:00;103368.44;;;7.88;80.83
73341;BME280;61578;52.002;5.468;2023-02-11T01:05:30;103367.59;;;7.86;80.59
73341;BME280;61578;52.002;5.468;2023-02-11T01:06:01;103370.25;;;7.84;80.81
73341;BME280;61578;52.002;5.468;2023-02-11T01:06:32;103372.94;;;7.83;80.73
73341;BME280;61578;52.002;5.468;2023-02-11T01:07:03;103366.78;;;7.82;80.49
73341;BME280;61578;52.002;5.468;2023-02-11T01:07:34;103363.31;;;7.75;80.66
73341;BME280;61578;52.002;5.468;2023-02-11T01:08:05;103355.38;;;7.75;80.92
73341;BME280;61578;52.002;5.468;2023-02-11T01:08:37;103366.78;;;7.81;80.88
73341;BME280;61578;52.002;5.468;2023-02-11T01:09:08;103372.06;;;7.81;80.76
73341;BME280;61578;52.002;5.468;2023-02-11T01:09:39;103363.25;;;7.80;80.64
73341;BME280;61578;52.002;5.468;2023-02-11T01:10:10;103325.59;;;7.61;80.79
73341;BME280;61578;52.002;5.468;2023-02-11T01:10:41;103362.41;;;7.76;80.69
73341;BME280;61578;52.002;5.468;2023-02-11T01:11:16;103367.66;;;7.81;80.65
73341;BME280;61578;52.002;5.468;2023-02-11T01:11:49;103364.94;;;7.84;80.78
73341;BME280;61578;52.002;5.468;2023-02-11T01:12:20;103360.53;;;7.86;80.31
73341;BME280;61578;52.002;5.468;2023-02-11T01:12:52;103373.75;;;7.88;80.54
73341;BME280;61578;52.002;5.468;2023-02-11T01:13:24;103358.75;;;7.87;80.62
73341;BME280;61578;52.002;5.468;2023-02-11T01:13:56;103358.78;;;7.85;80.70
73341;BME280;61578;52.002;5.468;2023-02-11T01:14:26;103354.41;;;7.83;80.30
73341;BME280;61578;52.002;5.468;2023-02-11T01:14:57;103357.06;;;7.83;80.51
73341;BME280;61578;52.002;5.468;2023-02-11T01:15:28;103357.97;;;7.80;80.72
73341;BME280;61578;52.002;5.468;2023-02-11T01:16:00;103353.56;;;7.81;80.90
73341;BME280;61578;52.002;5.468;2023-02-11T01:16:30;103354.47;;;7.78;81.11
73341;BME280;61578;52.002;5.468;2023-02-11T01:17:04;103342.16;;;7.75;80.96
73341;BME280;61578;52.002;5.468;2023-02-11T01:17:35;103340.38;;;7.78;80.94
73341;BME280;61578;52.002;5.468;2023-02-11T01:18:06;103350.06;;;7.79;80.83
73341;BME280;61578;52.002;5.468;2023-02-11T01:18:37;103349.16;;;7.80;80.96
73341;BME280;61578;52.002;5.468;2023-02-11T01:19:09;103329.00;;;7.71;80.92
73341;BME280;61578;52.002;5.468;2023-02-11T01:19:40;103343.88;;;7.78;81.10
73341;BME280;61578;52.002;5.468;2023-02-11T01:20:21;103345.66;;;7.76;80.83
73341;BME280;61578;52.002;5.468;2023-02-11T01:20:55;103326.38;;;7.69;80.95
73341;BME280;61578;52.002;5.468;2023-02-11T01:21:26;103339.50;;;7.75;81.05
73341;BME280;61578;52.002;5.468;2023-02-11T01:21:56;103333.41;;;7.72;81.14
73341;BME280;61578;52.002;5.468;2023-02-11T01:22:27;103339.50;;;7.75;81.30
73341;BME280;61578;52.002;5.468;2023-02-11T01:22:58;103330.69;;;7.73;81.17
73341;BME280;61578;52.002;5.468;2023-02-11T01:23:29;103327.22;;;7.71;81.23
73341;BME280;61578;52.002;5.468;2023-02-11T01:23:59;103332.47;;;7.74;81.11
73341;BME280;61578;52.002;5.468;2023-02-11T01:24:31;103330.69;;;7.73;81.39
73341;BME280;61578;52.002;5.468;2023-02-11T01:25:02;103336.06;;;7.70;81.09
73341;BME280;61578;52.002;5.468;2023-02-11T01:25:33;103329.91;;;7.68;81.29
73341;BME280;61578;52.002;5.468;2023-02-11T01:26:04;103325.50;;;7.67;80.89
73341;BME280;61578;52.002;5.468;2023-02-11T01:26:35;103325.50;;;7.69;81.25
73341;BME280;61578;52.002;5.468;2023-02-11T01:27:05;103329.00;;;7.69;81.46
73341;BME280;61578;52.002;5.468;2023-02-11T01:27:36;103332.53;;;7.68;81.57
73341;BME280;61578;52.002;5.468;2023-02-11T01:28:26;103324.63;;;7.67;81.58
73341;BME280;61578;52.002;5.468;2023-02-11T01:28:57;103329.00;;;7.69;81.65
73341;BME280;61578;52.002;5.468;2023-02-11T01:29:30;103343.13;;;7.68;81.37
73341;BME280;61578;52.002;5.468;2023-02-11T01:30:02;103329.00;;;7.69;81.35
73341;BME280;61578;52.002;5.468;2023-02-11T01:30:35;103337.81;;;7.70;81.16
73341;BME280;61578;52.002;5.468;2023-02-11T01:31:05;103332.53;;;7.68;81.48
73341;BME280;61578;52.002;5.468;2023-02-11T01:31:36;103277.38;;;7.39;81.17
73341;BME280;61578;52.002;5.468;2023-02-11T01:32:07;103278.31;;;7.35;81.27
73341;BME280;61578;52.002;5.468;2023-02-11T01:32:38;103289.66;;;7.44;81.49
73341;BME280;61578;52.002;5.468;2023-02-11T01:33:09;103312.41;;;7.58;81.41
73341;BME280;61578;52.002;5.468;2023-02-11T01:33:39;103319.38;;;7.64;81.84
73341;BME280;61578;52.002;5.468;2023-02-11T01:34:10;103317.59;;;7.66;81.54
73341;BME280;61578;52.002;5.468;2023-02-11T01:34:41;103298.25;;;7.62;81.30
73341;BME280;61578;52.002;5.468;2023-02-11T01:35:12;103308.75;;;7.68;81.58
73341;BME280;61578;52.002;5.468;2023-02-11T01:35:43;103299.13;;;7.63;81.39
73341;BME280;61578;52.002;5.468;2023-02-11T01:36:14;103256.28;;;7.36;81.24
73341;BME280;61578;52.002;5.468;2023-02-11T01:36:45;103263.31;;;7.37;81.42
73341;BME280;61578;52.002;5.468;2023-02-11T01:37:16;103303.56;;;7.62;81.27
73341;BME280;61578;52.002;5.468;2023-02-11T01:37:46;103318.53;;;7.62;81.52
73341;BME280;61578;52.002;5.468;2023-02-11T01:38:22;103315.91;;;7.62;81.44
73341;BME280;61578;52.002;5.468;2023-02-11T01:38:54;103317.66;;;7.63;81.75
73341;BME280;61578;52.002;5.468;2023-02-11T01:39:25;103322.97;;;7.58;81.57
73341;BME280;61578;52.002;5.468;2023-02-11T01:39:56;103330.81;;;7.64;81.26
73341;BME280;61578;52.002;5.468;2023-02-11T01:40:27;103333.56;;;7.58;81.57
73341;BME280;61578;52.002;5.468;2023-02-11T01:41:07;103329.06;;;7.63;81.69
73341;BME280;61578;52.002;5.468;2023-02-11T01:41:40;103308.13;;;7.47;81.52
73341;BME280;61578;52.002;5.468;2023-02-11T01:42:15;103328.25;;;7.60;81.71
73341;BME280;61578;52.002;5.468;2023-02-11T01:42:47;103334.44;;;7.59;81.47
73341;BME280;61578;52.002;5.468;2023-02-11T01:43:19;103335.31;;;7.59;81.49
73341;BME280;61578;52.002;5.468;2023-02-11T01:43:50;103330.88;;;7.61;81.69
73341;BME280;61578;52.002;5.468;2023-02-11T01:44:22;103334.34;;;7.63;81.63
73341;BME280;61578;52.002;5.468;2023-02-11T01:44:56;103333.53;;;7.60;81.67
73341;BME280;61578;52.002;5.468;2023-02-11T01:47:04;103343.16;;;7.65;81.21
73341;BME280;61578;52.002;5.468;2023-02-11T01:47:35;103332.66;;;7.59;81.21
73341;BME280;61578;52.002;5.468;2023-02-11T01:48:08;103328.31;;;7.54;81.52
73341;BME280;61578;52.002;5.468;2023-02-11T01:48:58;103344.97;;;7.62;81.40
73341;BME280;61578;52.002;5.468;2023-02-11T01:49:46;103345.88;;;7.59;81.61
73341;BME280;61578;52.002;5.468;2023-02-11T01:50:20;103344.09;;;7.61;81.64
73341;BME280;61578;52.002;5.468;2023-02-11T01:50:56;103354.69;;;7.61;81.54
73341;BME280;61578;52.002;5.468;2023-02-11T01:51:47;103343.22;;;7.62;81.61
73341;BME280;61578;52.002;5.468;2023-02-11T01:52:30;103348.50;;;7.61;81.59
73341;BME280;61578;52.002;5.468;2023-02-11T01:53:09;103344.97;;;7.62;81.40
73341;BME280;61578;52.002;5.468;2023-02-11T01:54:02;103309.13;;;7.36;81.54
73341;BME280;61578;52.002;5.468;2023-02-11T01:54:55;103347.66;;;7.59;81.46
73341;BME280;61578;52.002;5.468;2023-02-11T01:56:02;103356.44;;;7.62;81.60
73341;BME280;61578;52.002;5.468;2023-02-11T01:56:55;103356.44;;;7.62;81.90
73341;BME280;61578;52.002;5.468;2023-02-11T01:57:51;103361.72;;;7.62;81.73
73341;BME280;61578;52.002;5.468;2023-02-11T01:58:31;103362.59;;;7.63;81.48
73341;BME280;61578;52.002;5.468;2023-02-11T01:59:18;103361.66;;;7.64;81.65
73341;BME280;61578;52.002;5.468;2023-02-11T02:00:03;103351.09;;;7.64;81.58
73341;BME280;61578;52.002;5.468;2023-02-11T02:00:37;103351.09;;;7.64;81.80
73341;BME280;61578;52.002;5.468;2023-02-11T02:01:12;103350.19;;;7.66;81.38
73341;BME280;61578;52.002;5.468;2023-02-11T02:01:56;103340.50;;;7.67;81.11
73341;BME280;61578;52.002;5.468;2023-02-11T02:03:38;103319.47;;;7.55;81.21
73341;BME280;61578;52.002;5.468;2023-02-11T02:04:18;103340.47;;;7.68;81.31
73341;BME280;61578;52.002;5.468;2023-02-11T02:06:17;103336.03;;;7.72;81.00
73341;BME280;61578;52.002;5.468;2023-02-11T02:07:00;103338.72;;;7.67;81.14
73341;BME280;61578;52.002;5.468;2023-02-11T02:07:45;103330.78;;;7.67;81.45
73341;BME280;61578;52.002;5.468;2023-02-11T02:08:35;103343.13;;;7.68;81.34
73341;BME280;61578;52.002;5.468;2023-02-11T02:09:24;103331.69;;;7.65;81.40
73341;BME280;61578;52.002;5.468;2023-02-11T02:10:06;103330.81;;;7.64;81.61
73341;BME280;61578;52.002;5.468;2023-02-11T02:10:45;103338.75;;;7.64;81.68
73341;BME280;61578;52.002;5.468;2023-02-11T02:11:18;103329.13;;;7.60;81.56
73341;BME280;61578;52.002;5.468;2023-02-11T02:11:49;103337.94;;;7.62;81.75
73341;BME280;61578;52.002;5.468;2023-02-11T02:12:20;103344.94;;;7.63;81.74
73341;BME280;61578;52.002;5.468;2023-02-11T02:12:52;103338.81;;;7.60;81.41
73341;BME280;61578;52.002;5.468;2023-02-11T02:13:24;103343.25;;;7.59;81.57
73341;BME280;61578;52.002;5.468;2023-02-11T02:13:56;103342.34;;;7.62;81.93
73341;BME280;61578;52.002;5.468;2023-02-11T02:14:27;103331.78;;;7.60;81.53
73341;BME280;61578;52.002;5.468;2023-02-11T02:15:58;103330.00;;;7.62;81.39
73341;BME280;61578;52.002;5.468;2023-02-11T02:16:34;103330.91;;;7.60;81.96
73341;BME280;61578;52.002;5.468;2023-02-11T02:17:18;103344.09;;;7.63;81.68
73341;BME280;61578;52.002;5.468;2023-02-11T02:23:56;103338.75;;;7.64;81.96
73341;BME280;61578;52.002;5.468;2023-02-11T02:26:59;103348.50;;;7.61;82.06
73341;BME280;61578;52.002;5.468;2023-02-11T02:29:42;103337.88;;;7.65;82.05
73341;BME280;61578;52.002;5.468;2023-02-11T02:34:08;103344.09;;;7.61;81.95
73341;BME280;61578;52.002;5.468;2023-02-11T02:36:08;103328.31;;;7.54;82.05
73341;BME280;61578;52.002;5.468;2023-02-11T02:37:04;103337.94;;;7.59;82.17
73341;BME280;61578;52.002;5.468;2023-02-11T02:37:56;103340.59;;;7.61;82.08
73341;BME280;61578;52.002;5.468;2023-02-11T02:38:38;103338.81;;;7.60;82.27
73341;BME280;61578;52.002;5.468;2023-02-11T02:39:27;103334.44;;;7.59;82.39
73341;BME280;61578;52.002;5.468;2023-02-11T02:40:08;103336.22;;;7.55;82.11
73341;BME280;61578;52.002;5.468;2023-02-11T02:41:09;103335.31;;;7.59;82.04
73341;BME280;61578;52.002;5.468;2023-02-11T02:41:45;103328.31;;;7.54;82.20
73341;BME280;61578;52.002;5.468;2023-02-11T02:42:19;103334.41;;;7.62;82.31
73341;BME280;61578;52.002;5.468;2023-02-11T02:42:52;103345.88;;;7.61;82.24
73341;BME280;61578;52.002;5.468;2023-02-11T02:43:29;103330.91;;;7.58;82.28
73341;BME280;61578;52.002;5.468;2023-02-11T02:44:01;103333.53;;;7.60;82.09
73341;BME280;61578;52.002;5.468;2023-02-11T02:44:33;103335.31;;;7.59;82.22
73341;BME280;61578;52.002;5.468;2023-02-11T02:45:06;103334.44;;;7.57;82.26
73341;BME280;61578;52.002;5.468;2023-02-11T02:45:38;103329.16;;;7.57;82.16
73341;BME280;61578;52.002;5.468;2023-02-11T02:46:18;103333.56;;;7.55;82.34
73341;BME280;61578;52.002;5.468;2023-02-11T02:46:52;103326.53;;;7.54;82.62
73341;BME280;61578;52.002;5.468;2023-02-11T02:47:23;103330.94;;;7.55;82.72
73341;BME280;61578;52.002;5.468;2023-02-11T02:47:53;103336.22;;;7.57;82.59
73341;BME280;61578;52.002;5.468;2023-02-11T02:48:30;103334.44;;;7.56;82.42
73341;BME280;61578;52.002;5.468;2023-02-11T02:49:14;103309.03;;;7.46;82.44
73341;BME280;61578;52.002;5.468;2023-02-11T02:49:46;103320.34;;;7.55;82.63
73341;BME280;61578;52.002;5.468;2023-02-11T02:50:23;103317.78;;;7.51;82.62
73341;BME280;61578;52.002;5.468;2023-02-11T02:52:44;103318.66;;;7.53;82.55
73341;BME280;61578;52.002;5.468;2023-02-11T02:53:31;103320.44;;;7.49;82.76
73341;BME280;61578;52.002;5.468;2023-02-11T02:56:53;103320.47;;;7.46;83.36
73341;BME280;61578;52.002;5.468;2023-02-11T02:58:13;103318.72;;;7.45;83.10
73341;BME280;61578;52.002;5.468;2023-02-11T02:59:02;103320.56;;;7.38;82.97
73341;BME280;61578;52.002;5.468;2023-02-11T03:00:49;103325.00;;;7.33;83.05
73341;BME280;61578;52.002;5.468;2023-02-11T03:04:15;103325.09;;;7.26;83.56
73341;BME280;61578;52.002;5.468;2023-02-11T03:05:32;103325.09;;;7.26;83.41
73341;BME280;61578;52.002;5.468;2023-02-11T03:06:47;103334.84;;;7.22;83.88
73341;BME280;61578;52.002;5.468;2023-02-11T03:07:40;103331.28;;;7.23;83.63
73341;BME280;61578;52.002;5.468;2023-02-11T03:09:50;103341.91;;;7.19;83.82
73341;BME280;61578;52.002;5.468;2023-02-11T03:10:30;103337.53;;;7.16;84.07
73341;BME280;61578;52.002;5.468;2023-02-11T03:11:17;103338.41;;;7.17;84.37
73341;BME280;61578;52.002;5.468;2023-02-11T03:11:51;103312.09;;;7.05;83.90
73341;BME280;61578;52.002;5.468;2023-02-11T03:12:25;103324.38;;;7.12;84.25
73341;BME280;61578;52.002;5.468;2023-02-11T03:13:01;103327.84;;;7.14;84.27
73341;BME280;61578;52.002;5.468;2023-02-11T03:13:35;103333.13;;;7.18;84.39
73341;BME280;61578;52.002;5.468;2023-02-11T03:14:13;103332.22;;;7.19;84.25
73341;BME280;61578;52.002;5.468;2023-02-11T03:14:50;103321.69;;;7.15;84.23
73341;BME280;61578;52.002;5.468;2023-02-11T03:15:26;103333.97;;;7.22;83.94
73341;BME280;61578;52.002;5.468;2023-02-11T03:16:14;103319.84;;;7.23;84.37
73341;BME280;61578;52.002;5.468;2023-02-11T03:16:52;103319.00;;;7.21;84.25
73341;BME280;61578;52.002;5.468;2023-02-11T03:17:29;103319.84;;;7.23;84.08
73341;BME280;61578;52.002;5.468;2023-02-11T03:18:07;103310.19;;;7.22;84.21
73341;BME280;61578;52.002;5.468;2023-02-11T03:18:47;103315.47;;;7.22;84.45
73341;BME280;61578;52.002;5.468;2023-02-11T03:19:27;103257.63;;;6.94;84.34
73341;BME280;61578;52.002;5.468;2023-02-11T03:20:06;103313.72;;;7.22;84.03
73341;BME280;61578;52.002;5.468;2023-02-11T03:20:46;103318.06;;;7.26;84.24
73341;BME280;61578;52.002;5.468;2023-02-11T03:21:21;103310.09;;;7.28;84.11
73341;BME280;61578;52.002;5.468;2023-02-11T03:21:55;103313.63;;;7.27;84.18
73341;BME280;61578;52.002;5.468;2023-02-11T03:22:36;103310.13;;;7.25;83.95
73341;BME280;61578;52.002;5.468;2023-02-11T03:23:17;103311.00;;;7.27;83.89
73341;BME280;61578;52.002;5.468;2023-02-11T03:23:53;103310.97;;;7.28;83.89
73341;BME280;61578;52.002;5.468;2023-02-11T03:24:34;103306.56;;;7.29;84.02
73341;BME280;61578;52.002;5.468;2023-02-11T03:25:08;103309.25;;;7.26;83.77
73341;BME280;61578;52.002;5.468;2023-02-11T03:26:12;103297.03;;;7.16;83.99
73341;BME280;61578;52.002;5.468;2023-02-11T03:26:53;103317.16;;;7.26;84.24
73341;BME280;61578;52.002;5.468;2023-02-11T03:28:35;103309.25;;;7.26;83.93
73341;BME280;61578;52.002;5.468;2023-02-11T03:31:10;103305.72;;;7.27;84.48
73341;BME280;61578;52.002;5.468;2023-02-11T03:32:12;103302.19;;;7.28;84.35
73341;BME280;61578;52.002;5.468;2023-02-11T03:34:00;103292.50;;;7.27;84.44
73341;BME280;61578;52.002;5.468;2023-02-11T03:34:50;103302.19;;;7.26;84.13
73341;BME280;61578;52.002;5.468;2023-02-11T03:36:10;103295.13;;;7.27;84.24
73341;BME280;61578;52.002;5.468;2023-02-11T03:37:02;103299.56;;;7.25;84.65
73341;BME280;61578;52.002;5.468;2023-02-11T03:37:44;103305.69;;;7.28;84.53
73341;BME280;61578;52.002;5.468;2023-02-11T03:38:26;103298.69;;;7.23;84.40
73341;BME280;61578;52.002;5.468;2023-02-11T03:39:04;103309.22;;;7.27;84.56
73341;BME280;61578;52.002;5.468;2023-02-11T03:40:02;103312.75;;;7.28;84.55
73341;BME280;61578;52.002;5.468;2023-02-11T03:40:39;103290.81;;;7.21;84.64
73341;BME280;61578;52.002;5.468;2023-02-11T03:41:16;103305.69;;;7.30;84.37
73341;BME280;61578;52.002;5.468;2023-02-11T03:41:55;103252.31;;;6.99;84.39
73341;BME280;61578;52.002;5.468;2023-02-11T03:42:36;103289.84;;;7.27;84.74